SJY284 WIII-WIKK
Flight info
| Callsign | SJY284 |
|---|---|
| Flight time | N/A |
| Altitude | 33000 |
| Route | ABASA W14 ALTAR |
| Aircraft | B739/M-SDE2E3FGHIRWXY/LB1 |
Departure
| Time | 2026-05-05 09:23 |
|---|---|
| Airport | Soekarno-Hatta International Airport (WIII) |
Arrival
| Time | N/A |
|---|---|
| Airport | Depati Amir Airport (WIKK) |
| Time | Latitude | Longitude | Altitude | Speed | Heading |
|---|---|---|---|---|---|
| 2026-05-05 08:59 | -6.12041 | 106.65086 | 37 ft | 0 kts | 130° |
| 2026-05-05 09:12 | -6.12037 | 106.65082 | 38 ft | 2 kts | 128° |
| 2026-05-05 09:12 | -6.12027 | 106.65068 | 36 ft | 2 kts | 122° |
| 2026-05-05 09:12 | -6.12019 | 106.65054 | 33 ft | 2 kts | 111° |
| 2026-05-05 09:13 | -6.12015 | 106.65038 | 35 ft | 2 kts | 85° |
| 2026-05-05 09:13 | -6.12021 | 106.65022 | 36 ft | 2 kts | 40° |
| 2026-05-05 09:13 | -6.12032 | 106.65016 | 35 ft | 1 kts | 18° |
| 2026-05-05 09:13 | -6.12033 | 106.65015 | 35 ft | 0 kts | 15° |
| 2026-05-05 09:16 | -6.12021 | 106.65018 | 36 ft | 6 kts | 12° |
| 2026-05-05 09:16 | -6.11960 | 106.65018 | 38 ft | 9 kts | 337° |
| 2026-05-05 09:16 | -6.11953 | 106.65014 | 35 ft | 1 kts | 315° |
| 2026-05-05 09:17 | -6.11951 | 106.65004 | 37 ft | 3 kts | 277° |
| 2026-05-05 09:17 | -6.11962 | 106.64963 | 38 ft | 10 kts | 250° |
| 2026-05-05 09:17 | -6.12000 | 106.64870 | 37 ft | 16 kts | 247° |
| 2026-05-05 09:17 | -6.12003 | 106.64862 | 35 ft | 16 kts | 249° |
| 2026-05-05 09:18 | -6.12008 | 106.64847 | 36 ft | 16 kts | 251° |
| 2026-05-05 09:18 | -6.12048 | 106.64744 | 37 ft | 16 kts | 248° |
| 2026-05-05 09:18 | -6.12099 | 106.64617 | 37 ft | 23 kts | 248° |
| 2026-05-05 09:18 | -6.12158 | 106.64469 | 38 ft | 23 kts | 248° |
| 2026-05-05 09:19 | -6.12215 | 106.64325 | 38 ft | 22 kts | 248° |
| 2026-05-05 09:19 | -6.12271 | 106.64185 | 38 ft | 21 kts | 248° |
| 2026-05-05 09:19 | -6.12326 | 106.64049 | 37 ft | 21 kts | 248° |
| 2026-05-05 09:19 | -6.12340 | 106.63973 | 38 ft | 20 kts | 290° |
| 2026-05-05 09:20 | -6.12237 | 106.63905 | 39 ft | 12 kts | 335° |
| 2026-05-05 09:20 | -6.12218 | 106.63896 | 38 ft | 0 kts | 338° |
| 2026-05-05 09:21 | -6.12203 | 106.63892 | 39 ft | 6 kts | 351° |
| 2026-05-05 09:21 | -6.12107 | 106.63929 | 40 ft | 16 kts | 36° |
| 2026-05-05 09:21 | -6.12052 | 106.64005 | 38 ft | 5 kts | 68° |
| 2026-05-05 09:22 | -6.11991 | 106.64158 | 40 ft | 59 kts | 68° |
| 2026-05-05 09:22 | -6.11748 | 106.64769 | 42 ft | 126 kts | 68° |
| 2026-05-05 09:23 | -6.11357 | 106.65745 | 143 ft | 166 kts | 68° |
| 2026-05-05 09:23 | -6.10918 | 106.66820 | 810 ft | 168 kts | 67° |
| 2026-05-05 09:23 | -6.10426 | 106.67849 | 1551 ft | 164 kts | 51° |
| 2026-05-05 09:23 | -6.09590 | 106.68670 | 2001 ft | 177 kts | 46° |
| 2026-05-05 09:24 | -6.08654 | 106.69613 | 2276 ft | 203 kts | 47° |
| 2026-05-05 09:24 | -6.07610 | 106.70689 | 2483 ft | 228 kts | 47° |
| 2026-05-05 09:24 | -6.06479 | 106.71865 | 2921 ft | 239 kts | 48° |
| 2026-05-05 09:24 | -6.05280 | 106.73122 | 3351 ft | 258 kts | 48° |
| 2026-05-05 09:25 | -6.04027 | 106.74443 | 4024 ft | 265 kts | 47° |
| 2026-05-05 09:25 | -6.02760 | 106.75783 | 4842 ft | 265 kts | 48° |
| 2026-05-05 09:25 | -6.01482 | 106.77140 | 5605 ft | 269 kts | 48° |
| 2026-05-05 09:25 | -6.00192 | 106.78514 | 6333 ft | 272 kts | 48° |
| 2026-05-05 09:26 | -5.98883 | 106.79908 | 7040 ft | 275 kts | 48° |
| 2026-05-05 09:26 | -5.97564 | 106.81312 | 7751 ft | 278 kts | 48° |
| 2026-05-05 09:26 | -5.96219 | 106.82729 | 8457 ft | 282 kts | 45° |
| 2026-05-05 09:26 | -5.94686 | 106.83930 | 9160 ft | 286 kts | 35° |
| 2026-05-05 09:27 | -5.92996 | 106.85013 | 9855 ft | 290 kts | 33° |
| 2026-05-05 09:27 | -5.91257 | 106.86083 | 10389 ft | 300 kts | 33° |
| 2026-05-05 09:27 | -5.89413 | 106.87224 | 10536 ft | 322 kts | 33° |
| 2026-05-05 09:27 | -5.87461 | 106.88447 | 10851 ft | 336 kts | 33° |
| 2026-05-05 09:28 | -5.85468 | 106.89708 | 11417 ft | 341 kts | 33° |
| 2026-05-05 09:28 | -5.83461 | 106.90986 | 12078 ft | 343 kts | 33° |
| 2026-05-05 09:28 | -5.81439 | 106.92281 | 12722 ft | 346 kts | 34° |
| 2026-05-05 09:28 | -5.79401 | 106.93588 | 13358 ft | 350 kts | 34° |
| 2026-05-05 09:29 | -5.77339 | 106.94914 | 13958 ft | 353 kts | 34° |
| 2026-05-05 09:29 | -5.75259 | 106.96251 | 14538 ft | 357 kts | 34° |
| 2026-05-05 09:29 | -5.73158 | 106.97601 | 15133 ft | 360 kts | 34° |
| 2026-05-05 09:29 | -5.71040 | 106.98961 | 15723 ft | 363 kts | 34° |
| 2026-05-05 09:30 | -5.68902 | 107.00334 | 16309 ft | 367 kts | 34° |
| 2026-05-05 09:30 | -5.66745 | 107.01720 | 16884 ft | 370 kts | 34° |
| 2026-05-05 09:30 | -5.64569 | 107.03118 | 17458 ft | 373 kts | 34° |
| 2026-05-05 09:30 | -5.62371 | 107.04529 | 17996 ft | 377 kts | 33° |
| 2026-05-05 09:31 | -5.60154 | 107.05954 | 18477 ft | 380 kts | 34° |
| 2026-05-05 09:31 | -5.57918 | 107.07390 | 18941 ft | 383 kts | 34° |